Time;durP1;ratioP1;P1;durP2;ratioP2;P2;SDS_P1;SDS_P2;PMS_P1;PMS_P2;Temp;Humidity;BMP_temperature;BMP_pressure;BME280_temperature;BME280_humidity;BME280_pressure;Samples;Min_cycle;Max_cycle;Signal;HPM_P1;HPM_P2
2023/03/03 00:02:05;;;;;;;37.55;14.55;;;;;;;0.69;91.88;102804.81;6098906;19;20097;-76
2023/03/03 00:04:10;;;;;;;39.80;13.93;;;;;;;0.66;92.00;102810.78;6099503;19;20070;-76
2023/03/03 00:06:16;;;;;;;34.63;15.23;;;;;;;0.64;92.12;102815.03;6099841;19;20105;-76
2023/03/03 00:08:22;;;;;;;38.33;16.33;;;;;;;0.65;91.94;102803.81;6101090;19;20016;-76
2023/03/03 00:10:30;;;;;;;34.30;16.30;;;;;;;0.64;92.00;102799.50;6101574;19;20011;-76
2023/03/03 00:12:37;;;;;;;39.60;14.40;;;;;;;0.65;92.55;102803.81;6111656;19;20007;-76
2023/03/03 00:14:42;;;;;;;36.78;15.23;;;;;;;0.63;92.33;102813.25;6116074;19;20010;-75
2023/03/03 00:16:48;;;;;;;38.70;14.93;;;;;;;0.64;92.49;102815.03;6118595;19;20018;-76
2023/03/03 00:18:54;;;;;;;39.67;15.30;;;;;;;0.66;92.72;102810.78;6123494;19;20029;-76
2023/03/03 00:21:00;;;;;;;41.85;16.05;;;;;;;0.62;92.77;102808.91;6120085;19;20010;-76
2023/03/03 00:23:21;;;;;;;37.40;16.30;;;;;;;0.61;92.42;102810.63;6119673;19;20025;-76
2023/03/03 00:25:33;;;;;;;31.15;13.05;;;;;;;0.62;93.24;102809.78;6117331;19;20015;-76
2023/03/03 00:27:38;;;;;;;37.13;14.10;;;;;;;0.53;92.62;102809.50;6120249;19;20027;-75
2023/03/03 00:29:47;;;;;;;33.15;14.43;;;;;;;0.53;93.30;102819.84;6120744;19;20011;-76
2023/03/03 00:31:52;;;;;;;39.47;15.15;;;;;;;0.51;93.34;102813.75;6115923;19;20025;-76
2023/03/03 00:33:58;;;;;;;28.35;12.93;;;;;;;0.43;92.69;102812.63;6115518;19;20007;-76
2023/03/03 00:36:27;;;;;;;32.60;14.40;;;;;;;0.54;93.70;102811.25;6109135;19;20748;-73
2023/03/03 00:38:37;;;;;;;32.72;13.57;;;;;;;0.51;93.39;102821.50;6105048;19;20010;-76
2023/03/03 00:40:44;;;;;;;45.75;16.13;;;;;;;0.54;93.88;102815.53;6103808;19;20018;-76
2023/03/03 00:42:52;;;;;;;37.13;15.43;;;;;;;0.50;93.21;102811.09;6103012;19;20014;-76
2023/03/03 00:45:01;;;;;;;42.20;17.60;;;;;;;0.55;94.18;102813.00;6097187;19;20090;-76
2023/03/03 00:47:25;;;;;;;37.20;15.88;;;;;;;0.52;93.75;102812.03;6095214;19;20344;-76
2023/03/03 00:49:35;;;;;;;37.78;14.52;;;;;;;0.51;93.35;102807.69;6097974;19;20011;-77
2023/03/03 00:51:40;;;;;;;39.67;14.95;;;;;;;0.42;93.08;102806.56;6094514;19;20043;-76
2023/03/03 00:53:45;;;;;;;29.92;13.70;;;;;;;0.37;93.05;102810.72;6092548;19;20029;-76
2023/03/03 00:55:53;;;;;;;34.58;13.50;;;;;;;0.35;93.69;102817.53;6095727;19;20042;-76
2023/03/03 00:57:58;;;;;;;33.45;14.00;;;;;;;0.32;93.21;102816.56;6092323;19;20054;-76
2023/03/03 01:00:03;;;;;;;37.47;14.68;;;;;;;0.32;93.61;102812.25;6090645;19;20015;-74
2023/03/03 01:02:08;;;;;;;34.03;15.23;;;;;;;0.44;93.96;102809.19;6093636;19;20026;-76
2023/03/03 01:04:14;;;;;;;30.27;13.45;;;;;;;0.55;94.26;102818.16;6095605;19;20450;-76
2023/03/03 01:06:19;;;;;;;29.35;13.43;;;;;;;0.50;94.10;102806.81;6096969;19;20046;-76
2023/03/03 01:08:24;;;;;;;40.30;15.60;;;;;;;0.61;94.31;102809.75;6097324;19;20014;-76
2023/03/03 01:10:32;;;;;;;42.92;16.80;;;;;;;0.56;93.86;102809.59;6094390;19;20019;-76
2023/03/03 01:12:40;;;;;;;42.67;16.52;;;;;;;0.64;94.10;102817.59;6097865;19;20022;-76
2023/03/03 01:14:45;;;;;;;40.28;17.17;;;;;;;0.63;94.09;102815.84;6099779;19;20003;-76
2023/03/03 01:16:49;;;;;;;48.47;17.85;;;;;;;0.58;93.98;102812.22;6095574;19;20007;-76
2023/03/03 01:18:54;;;;;;;43.75;17.90;;;;;;;0.64;94.10;102815.91;6098798;19;20027;-76
2023/03/03 01:21:00;;;;;;;37.97;15.45;;;;;;;0.74;94.07;102813.59;6100374;19;20014;-76
2023/03/03 01:23:06;;;;;;;42.13;15.95;;;;;;;0.73;93.88;102820.47;6104428;19;20007;-76
2023/03/03 01:25:14;;;;;;;43.85;15.30;;;;;;;0.75;93.87;102808.47;6104938;19;20025;-76
2023/03/03 01:27:21;;;;;;;38.67;14.63;;;;;;;0.71;93.83;102814.41;6103245;19;20018;-76
2023/03/03 01:29:29;;;;;;;31.67;13.82;;;;;;;0.76;93.84;102811.94;6105476;19;20038;-76
2023/03/03 01:31:33;;;;;;;34.88;15.45;;;;;;;0.80;93.78;102812.09;6102641;19;20634;-76
2023/03/03 01:33:38;;;;;;;38.30;14.10;;;;;;;0.80;93.93;102812.09;6104500;19;20101;-76
2023/03/03 01:35:46;;;;;;;34.47;15.73;;;;;;;0.82;93.78;102815.59;6104993;19;20021;-71
2023/03/03 01:37:50;;;;;;;28.95;13.55;;;;;;;0.81;93.91;102813.81;6104589;19;20018;-71
2023/03/03 01:39:56;;;;;;;38.17;14.75;;;;;;;0.81;93.80;102815.53;6105207;19;20245;-71
2023/03/03 01:42:01;;;;;;;31.02;13.57;;;;;;;0.85;94.00;102815.69;6105106;19;20022;-71
2023/03/03 01:44:06;;;;;;;36.30;15.05;;;;;;;0.81;93.85;102821.59;6099199;19;20470;-71
2023/03/03 01:46:47;;;;;;;28.20;14.13;;;;;;;0.79;93.66;102815.50;6102461;19;20007;-71
2023/03/03 01:49:01;;;;;;;38.30;14.90;;;;;;;0.78;93.75;102823.22;6103438;19;20245;-71
2023/03/03 01:51:18;;;;;;;33.80;13.07;;;;;;;0.74;94.01;102829.09;6102878;19;20015;-71
2023/03/03 01:53:25;;;;;;;31.27;13.18;;;;;;;0.71;93.82;102819.56;6099221;19;20608;-71
2023/03/03 01:55:35;;;;;;;27.38;12.55;;;;;;;0.73;94.19;102817.00;6103265;19;20337;-71
2023/03/03 01:57:45;;;;;;;32.88;12.68;;;;;;;0.75;94.00;102811.06;6102011;19;20025;-71
2023/03/03 01:59:52;;;;;;;31.08;12.07;;;;;;;0.67;93.65;102816.84;6103704;19;20014;-71
2023/03/03 02:01:57;;;;;;;26.73;12.95;;;;;;;0.66;94.04;102815.97;6103055;19;20567;-71
2023/03/03 02:04:05;;;;;;;30.25;12.27;;;;;;;0.69;93.93;102821.22;6125359;19;20027;-76
2023/03/03 02:06:13;;;;;;;26.73;11.77;;;;;;;0.69;94.01;102816.03;6076417;19;20007;-76
2023/03/03 02:08:22;;;;;;;23.90;11.27;;;;;;;0.72;93.74;102810.09;6104521;19;20017;-76
2023/03/03 02:10:28;;;;;;;35.33;13.65;;;;;;;0.71;94.02;102819.56;6100950;19;20006;-77
2023/03/03 02:12:37;;;;;;;32.63;12.38;;;;;;;0.64;93.95;102807.25;6103336;19;20015;-76
2023/03/03 02:14:42;;;;;;;30.15;13.82;;;;;;;0.74;94.08;102809.31;6104014;19;20024;-76
2023/03/03 02:16:47;;;;;;;30.58;12.50;;;;;;;0.74;93.99;102813.59;6101758;19;20011;-76
2023/03/03 02:18:52;;;;;;;31.83;13.38;;;;;;;0.79;94.04;102804.25;6104413;19;20022;-76
2023/03/03 02:21:03;;;;;;;34.22;14.27;;;;;;;0.75;93.69;102812.78;6104428;19;20714;-76
2023/03/03 02:23:14;;;;;;;38.38;14.93;;;;;;;0.73;93.74;102812.72;6102837;19;20375;-76
2023/03/03 02:25:29;;;;;;;37.83;15.73;;;;;;;0.72;93.72;102804.91;6103197;19;20030;-76
2023/03/03 02:27:38;;;;;;;37.88;14.93;;;;;;;0.68;93.77;102809.09;6101840;19;20368;-78
2023/03/03 02:29:44;;;;;;;36.00;15.43;;;;;;;0.68;94.04;102806.50;6102450;19;20015;-77
2023/03/03 02:31:49;;;;;;;34.38;13.57;;;;;;;0.67;93.96;102807.34;6102334;19;20018;-76
2023/03/03 02:33:55;;;;;;;34.30;14.63;;;;;;;0.70;93.90;102807.44;6098472;19;20014;-77
2023/03/03 02:35:59;;;;;;;32.45;12.98;;;;;;;0.69;93.99;102804.81;6102620;19;20018;-76
2023/03/03 02:38:13;;;;;;;30.60;11.95;;;;;;;0.71;93.68;102798.88;6098970;19;20010;-76
2023/03/03 02:40:21;;;;;;;31.67;13.88;;;;;;;0.70;93.93;102810.03;6102197;19;20046;-76
2023/03/03 02:42:31;;;;;;;27.92;11.48;;;;;;;0.71;93.63;102798.88;6102901;19;20022;-76
2023/03/03 02:44:41;;;;;;;26.02;11.35;;;;;;;0.73;94.00;102798.91;6102466;19;20011;-76
2023/03/03 02:46:48;;;;;;;25.23;10.35;;;;;;;0.72;93.73;102800.63;6102240;19;20043;-76
2023/03/03 02:48:53;;;;;;;27.23;12.07;;;;;;;0.74;93.68;102798.97;6101041;19;20336;-76
2023/03/03 02:50:58;;;;;;;25.63;11.82;;;;;;;0.75;93.82;102795.53;6101942;19;20014;-76
2023/03/03 02:53:03;;;;;;;25.08;10.93;;;;;;;0.73;93.83;102797.19;6076301;19;20577;-76
2023/03/03 02:55:10;;;;;;;24.63;12.02;;;;;;;0.68;93.72;102798.75;6100826;19;20019;-77
2023/03/03 02:57:17;;;;;;;23.42;11.00;;;;;;;0.74;93.75;102804.13;6099109;19;20025;-76
2023/03/03 02:59:21;;;;;;;23.58;10.95;;;;;;;0.74;93.79;102792.88;6101223;19;20022;-77
2023/03/03 03:01:30;;;;;;;27.05;10.75;;;;;;;0.66;93.73;102800.44;6101467;19;20534;-76
2023/03/03 03:03:37;;;;;;;22.65;10.77;;;;;;;0.62;93.77;102804.59;6098936;19;20018;-76
2023/03/03 03:05:42;;;;;;;26.35;11.52;;;;;;;0.64;93.91;102799.50;6100700;19;20011;-76
2023/03/03 03:07:50;;;;;;;21.58;10.35;;;;;;;0.59;93.95;102803.66;6100835;19;20030;-76
2023/03/03 03:09:55;;;;;;;27.13;10.80;;;;;;;0.60;94.38;102808.84;6103324;19;20042;-77
2023/03/03 03:12:01;;;;;;;28.98;11.90;;;;;;;0.57;94.03;102802.72;6106450;19;20753;-76
2023/03/03 03:14:08;;;;;;;20.65;10.55;;;;;;;0.62;94.26;102807.19;6102179;19;20023;-70
2023/03/03 03:16:13;;;;;;;23.90;10.75;;;;;;;0.62;94.21;102814.97;6104644;19;20022;-70
2023/03/03 03:18:20;;;;;;;30.15;12.55;;;;;;;0.71;94.33;102809.22;6105150;19;20018;-71
2023/03/03 03:20:25;;;;;;;28.00;11.00;;;;;;;0.74;94.48;102801.56;6109231;19;20518;-70
2023/03/03 03:22:30;;;;;;;31.55;12.50;;;;;;;0.86;94.26;102808.81;6110376;19;20715;-71
2023/03/03 03:24:35;;;;;;;28.75;13.07;;;;;;;0.97;94.54;102810.00;6110948;19;20017;-71
2023/03/03 03:26:40;;;;;;;26.27;12.02;;;;;;;1.02;94.63;102816.22;6107472;19;20038;-70
2023/03/03 03:28:45;;;;;;;28.90;13.20;;;;;;;1.08;94.31;102818.13;6105596;19;20046;-71
2023/03/03 03:30:49;;;;;;;27.08;11.95;;;;;;;1.08;94.32;102812.94;6105037;19;20036;-71
2023/03/03 03:32:54;;;;;;;29.13;12.10;;;;;;;1.13;94.38;102819.13;6103155;19;20018;-71
2023/03/03 03:35:01;;;;;;;32.10;13.15;;;;;;;1.16;94.27;102816.66;6102893;19;20019;-71
2023/03/03 03:37:08;;;;;;;35.92;13.55;;;;;;;1.19;94.33;102821.91;6101878;19;20772;-71
2023/03/03 03:39:13;;;;;;;31.55;12.68;;;;;;;1.25;94.94;102818.63;6101409;19;20007;-71
2023/03/03 03:41:18;;;;;;;27.30;12.95;;;;;;;1.28;94.85;102821.31;6101980;19;20010;-71
2023/03/03 03:43:23;;;;;;;36.42;14.32;;;;;;;1.28;95.21;102827.34;6102463;19;20024;-72
2023/03/03 03:45:27;;;;;;;30.90;13.55;;;;;;;1.29;95.27;102821.34;6078410;19;20018;-71
2023/03/03 03:47:32;;;;;;;37.40;14.35;;;;;;;1.32;95.48;102812.81;6097587;19;21248;-71
2023/03/03 03:49:37;;;;;;;36.88;13.68;;;;;;;1.34;95.09;102824.06;6098474;19;20018;-72
2023/03/03 03:51:44;;;;;;;40.55;14.70;;;;;;;1.36;95.28;102824.13;6101275;19;20030;-72
2023/03/03 03:53:49;;;;;;;38.72;14.75;;;;;;;1.42;95.37;102819.09;6098483;19;20015;-71
2023/03/03 03:55:53;;;;;;;39.83;14.85;;;;;;;1.44;95.11;102820.91;6100027;19;20010;-71
2023/03/03 03:57:58;;;;;;;38.05;15.70;;;;;;;1.46;95.24;102819.25;6098738;19;20913;-71
2023/03/03 04:00:03;;;;;;;40.97;15.32;;;;;;;1.49;95.18;102818.47;6098606;19;20006;-72
2023/03/03 04:02:08;;;;;;;44.10;15.75;;;;;;;1.53;95.34;102821.19;6100176;19;21178;-72
2023/03/03 04:04:12;;;;;;;47.63;17.15;;;;;;;1.51;95.44;102827.16;6101783;19;20006;-76
2023/03/03 04:06:17;;;;;;;45.53;16.88;;;;;;;1.56;95.25;102828.19;6102092;19;20102;-77
2023/03/03 04:08:25;;;;;;;44.35;16.35;;;;;;;1.53;95.35;102822.91;6098423;19;20462;-77
2023/03/03 04:10:29;;;;;;;41.92;15.65;;;;;;;1.55;95.10;102829.00;6097478;19;20007;-71
2023/03/03 04:12:37;;;;;;;43.17;16.98;;;;;;;1.54;95.18;102824.66;6098377;19;20010;-71
2023/03/03 04:14:42;;;;;;;42.50;15.05;;;;;;;1.55;95.59;102831.56;6099008;19;20007;-71
2023/03/03 04:16:47;;;;;;;55.53;16.65;;;;;;;1.55;95.38;102826.41;6100529;19;20013;-71
2023/03/03 04:18:52;;;;;;;53.30;17.55;;;;;;;1.53;95.41;102831.56;6098406;19;20025;-71
2023/03/03 04:20:56;;;;;;;36.80;17.02;;;;;;;1.54;95.33;102822.94;6099705;19;20032;-71
2023/03/03 04:23:01;;;;;;;46.80;18.08;;;;;;;1.57;95.43;102831.63;6098891;19;20029;-71
2023/03/03 04:25:11;;;;;;;50.50;17.58;;;;;;;1.61;95.39;102826.59;6101600;19;20010;-71
2023/03/03 04:27:16;;;;;;;46.70;17.25;;;;;;;1.62;95.01;102830.94;6099840;19;20050;-71
2023/03/03 04:29:21;;;;;;;41.33;16.17;;;;;;;1.64;94.99;102829.25;6098711;19;20459;-72
2023/03/03 04:31:26;;;;;;;45.08;16.30;;;;;;;1.69;95.02;102826.81;6097994;19;20022;-71
2023/03/03 04:33:31;;;;;;;43.72;17.27;;;;;;;1.67;95.21;102831.94;6096584;19;20530;-72
2023/03/03 04:35:36;;;;;;;55.58;16.42;;;;;;;1.71;95.27;102835.47;6101000;19;20034;-77
2023/03/03 04:37:41;;;;;;;50.22;16.55;;;;;;;1.70;95.20;102829.44;6095800;19;20014;-77
2023/03/03 04:39:45;;;;;;;42.50;15.85;;;;;;;1.71;95.25;102827.72;6097365;19;20026;-77
2023/03/03 04:41:53;;;;;;;53.33;17.50;;;;;;;1.67;95.41;102829.34;6097872;19;20092;-77
2023/03/03 04:43:57;;;;;;;46.42;15.70;;;;;;;1.70;95.08;102829.44;6098537;19;20545;-76
2023/03/03 04:46:05;;;;;;;38.30;14.98;;;;;;;1.72;94.88;102835.53;6099456;19;20550;-76
2023/03/03 04:48:10;;;;;;;48.22;16.38;;;;;;;1.71;94.99;102836.38;6094593;19;20571;-76
2023/03/03 04:50:15;;;;;;;46.28;14.77;;;;;;;1.76;94.73;102836.50;6100060;19;20106;-76
2023/03/03 04:52:20;;;;;;;45.20;17.83;;;;;;;1.75;94.67;102830.44;6100327;19;20040;-76
2023/03/03 04:54:24;;;;;;;45.33;16.98;;;;;;;1.73;94.88;102824.31;6098040;19;20011;-77
2023/03/03 04:56:31;;;;;;;38.28;15.32;;;;;;;1.75;94.94;102843.41;6102156;19;20010;-76
2023/03/03 04:58:39;;;;;;;43.63;15.18;;;;;;;1.72;94.82;102839.84;6103639;19;20014;-76
2023/03/03 05:00:43;;;;;;;47.95;16.42;;;;;;;1.71;94.90;102841.56;6106130;19;20094;-77
2023/03/03 05:02:49;;;;;;;43.53;17.13;;;;;;;1.79;94.79;102843.47;6104924;19;20028;-76
2023/03/03 05:04:54;;;;;;;43.38;14.73;;;;;;;1.82;94.52;102840.97;6105774;19;20022;-77
2023/03/03 05:06:59;;;;;;;38.47;13.57;;;;;;;1.79;94.37;102841.78;6105045;19;20014;-77
2023/03/03 05:09:04;;;;;;;37.53;14.32;;;;;;;1.79;94.38;102843.47;6105201;19;20014;-76
2023/03/03 05:11:08;;;;;;;43.35;14.60;;;;;;;1.79;94.56;102848.66;6099854;19;20006;-77
2023/03/03 05:13:14;;;;;;;49.72;17.92;;;;;;;1.73;94.37;102847.66;6102018;19;20023;-77
2023/03/03 05:15:21;;;;;;;34.72;12.50;;;;;;;1.71;94.82;102846.75;6101708;19;20006;-77
2023/03/03 05:17:24;;;;;;;36.60;12.98;;;;;;;1.74;94.57;102856.34;6104438;19;20014;-77
2023/03/03 05:19:28;;;;;;;31.13;12.23;;;;;;;1.75;94.84;102843.41;6102509;19;20017;-77
2023/03/03 05:21:33;;;;;;;37.55;13.65;;;;;;;1.73;94.56;102850.25;6102810;19;20711;-76
2023/03/03 05:23:40;;;;;;;30.17;12.85;;;;;;;1.80;94.45;102846.13;6103421;19;20237;-76
2023/03/03 05:25:46;;;;;;;30.05;11.77;;;;;;;1.79;94.38;102848.66;6104164;19;20523;-78
2023/03/03 05:27:50;;;;;;;37.75;13.52;;;;;;;1.74;94.58;102849.44;6103101;19;20022;-78
2023/03/03 05:29:55;;;;;;;29.73;12.45;;;;;;;1.78;94.33;102846.91;6101394;19;20006;-77
2023/03/03 05:32:03;;;;;;;32.67;12.57;;;;;;;1.76;94.53;102849.44;6104337;19;20034;-77
2023/03/03 05:34:08;;;;;;;25.65;10.35;;;;;;;1.71;94.67;102845.84;6095748;19;20017;-77
2023/03/03 05:36:13;;;;;;;28.60;11.35;;;;;;;1.74;94.61;102844.25;6104500;19;20097;-76
2023/03/03 05:38:17;;;;;;;28.98;10.82;;;;;;;1.79;94.45;102839.19;6104393;19;20011;-76
2023/03/03 05:40:22;;;;;;;22.45;9.82;;;;;;;1.82;94.38;102843.56;6104965;19;20018;-76
2023/03/03 05:42:27;;;;;;;31.25;12.05;;;;;;;1.88;94.09;102839.44;6106157;19;20334;-76
2023/03/03 05:44:32;;;;;;;28.60;12.63;;;;;;;1.78;94.47;102842.59;6104622;19;20017;-76
2023/03/03 05:46:37;;;;;;;24.48;11.45;;;;;;;1.82;94.21;102840.97;6103606;19;20106;-76
2023/03/03 05:48:44;;;;;;;30.73;11.32;;;;;;;1.83;94.40;102840.16;6102587;19;20031;-76
2023/03/03 05:50:49;;;;;;;34.45;10.32;;;;;;;1.85;94.50;102843.66;6105119;19;20010;-77
2023/03/03 05:52:54;;;;;;;25.67;9.75;;;;;;;1.82;94.46;102835.78;6102439;19;20018;-78
2023/03/03 05:55:02;;;;;;;24.67;10.77;;;;;;;1.79;94.59;102841.78;6105188;19;20043;-77
2023/03/03 05:57:06;;;;;;;24.52;9.57;;;;;;;1.81;94.48;102845.28;6103312;19;20011;-77
2023/03/03 05:59:19;;;;;;;24.23;9.30;;;;;;;1.91;94.45;102841.25;6077349;19;20015;-72
2023/03/03 06:01:24;;;;;;;24.33;9.27;;;;;;;1.89;94.43;102836.00;6102574;19;20014;-72
2023/03/03 06:03:29;;;;;;;17.85;8.43;;;;;;;1.88;94.40;102846.34;6099268;19;20018;-72
2023/03/03 06:05:36;;;;;;;19.15;8.18;;;;;;;1.94;94.52;102843.91;6103486;19;20035;-72
2023/03/03 06:07:41;;;;;;;19.13;8.75;;;;;;;1.86;94.63;102845.41;6100755;19;20011;-71
2023/03/03 06:09:46;;;;;;;22.13;9.02;;;;;;;1.84;94.42;102849.66;6104038;19;20011;-77
2023/03/03 06:11:53;;;;;;;16.98;9.07;;;;;;;1.89;94.69;102853.28;6111114;19;20594;-76
2023/03/03 06:13:58;;;;;;;17.67;8.38;;;;;;;1.88;94.63;102851.53;6112335;19;20743;-76
2023/03/03 06:16:02;;;;;;;20.48;8.63;;;;;;;1.87;94.60;102847.16;6112772;19;20038;-76
2023/03/03 06:18:07;;;;;;;15.55;8.13;;;;;;;1.90;94.74;102858.50;6110117;19;20019;-77
2023/03/03 06:20:13;;;;;;;14.88;7.75;;;;;;;1.90;94.73;102857.63;6113744;19;20013;-77
2023/03/03 06:22:20;;;;;;;17.15;8.10;;;;;;;1.90;94.68;102860.22;6116611;19;20011;-77
2023/03/03 06:24:29;;;;;;;18.30;8.32;;;;;;;1.93;94.80;102868.09;6116202;19;21802;-76
2023/03/03 06:26:34;;;;;;;19.92;9.93;;;;;;;1.93;95.01;102861.19;6115616;19;20014;-76
2023/03/03 06:28:39;;;;;;;23.27;8.77;;;;;;;1.92;94.74;102868.91;6111945;19;20067;-77
2023/03/03 06:30:47;;;;;;;16.25;8.45;;;;;;;1.96;94.66;102866.44;6109894;19;20017;-76
2023/03/03 06:32:51;;;;;;;17.35;7.35;;;;;;;1.93;94.79;102865.50;6106367;19;20022;-77
2023/03/03 06:34:56;;;;;;;18.25;8.60;;;;;;;1.92;94.91;102867.22;6104513;19;20007;-77
2023/03/03 06:37:01;;;;;;;17.15;7.82;;;;;;;2.00;94.88;102866.53;6105285;19;20021;-77
2023/03/03 06:39:08;;;;;;;16.58;8.23;;;;;;;2.06;94.57;102866.72;6102687;19;20017;-77
2023/03/03 06:41:13;;;;;;;15.23;8.18;;;;;;;2.04;94.53;102869.25;6102215;19;20809;-77
2023/03/03 06:43:31;;;;;;;15.05;7.60;;;;;;;2.01;94.58;102869.19;6109930;19;20014;-76
2023/03/03 06:45:36;;;;;;;16.25;7.47;;;;;;;1.96;94.60;102879.41;6102741;19;20023;-72
2023/03/03 06:47:41;;;;;;;17.77;7.82;;;;;;;1.99;94.76;102881.22;6098502;19;20481;-72
2023/03/03 06:49:46;;;;;;;17.15;7.95;;;;;;;1.96;94.88;102876.81;6098267;19;20011;-72
2023/03/03 06:51:51;;;;;;;14.35;7.25;;;;;;;2.01;94.96;102878.69;6092254;19;20010;-72
2023/03/03 06:53:57;;;;;;;19.30;8.63;;;;;;;2.04;94.83;102882.22;6094926;19;20557;-72
2023/03/03 06:56:11;;;;;;;14.65;7.50;;;;;;;2.03;94.73;102883.06;6097879;19;20538;-71
2023/03/03 06:58:18;;;;;;;15.77;7.35;;;;;;;2.08;94.66;102894.44;6097527;19;20018;-72
2023/03/03 07:00:26;;;;;;;15.13;7.75;;;;;;;2.09;94.69;102891.00;6096885;19;20058;-72
2023/03/03 07:02:34;;;;;;;18.10;8.10;;;;;;;2.12;94.64;102885.91;6099424;19;20014;-72
2023/03/03 07:04:39;;;;;;;14.48;7.40;;;;;;;2.11;94.61;102886.75;6098313;19;20042;-72
2023/03/03 07:06:44;;;;;;;15.07;7.18;;;;;;;2.08;94.85;102897.03;6099936;19;20134;-72
2023/03/03 07:08:49;;;;;;;16.23;8.30;;;;;;;2.09;94.44;102896.19;6096865;19;20014;-72
2023/03/03 07:10:54;;;;;;;15.50;7.72;;;;;;;2.05;94.65;102901.25;6095094;19;20011;-71
2023/03/03 07:13:22;;;;;;;15.98;8.15;;;;;;;2.11;94.66;102904.91;6096383;19;20058;-71
2023/03/03 07:15:35;;;;;;;12.23;7.72;;;;;;;2.09;94.67;102903.97;6096998;19;20013;-71
2023/03/03 07:17:44;;;;;;;15.55;7.03;;;;;;;2.10;94.71;102912.63;6102407;19;20011;-72
2023/03/03 07:19:50;;;;;;;18.05;7.88;;;;;;;2.11;94.55;102912.69;6098782;19;20006;-72
2023/03/03 07:21:54;;;;;;;16.08;8.00;;;;;;;2.12;94.69;102917.03;6100712;19;20499;-71
2023/03/03 07:24:01;;;;;;;13.35;7.85;;;;;;;2.07;94.84;102915.13;6097782;19;20011;-72
2023/03/03 07:26:06;;;;;;;15.82;7.72;;;;;;;2.08;94.73;102912.59;6103849;19;20021;-71
2023/03/03 07:28:23;;;;;;;13.55;6.68;;;;;;;2.17;94.55;102917.16;6102187;19;20719;-71
2023/03/03 07:30:30;;;;;;;15.07;7.15;;;;;;;2.09;94.75;102914.34;6101544;19;20711;-72
2023/03/03 07:32:41;;;;;;;16.20;8.70;;;;;;;2.10;94.79;102917.81;6098857;19;20093;-72
2023/03/03 07:34:49;;;;;;;11.13;6.68;;;;;;;2.15;95.28;102917.09;6095871;19;20010;-72
2023/03/03 07:36:58;;;;;;;15.98;9.20;;;;;;;2.21;94.61;102926.75;6098932;19;20022;-73
2023/03/03 07:39:05;;;;;;;15.40;8.07;;;;;;;2.22;94.65;102920.75;6098455;19;20015;-72
2023/03/03 07:41:16;;;;;;;14.38;8.10;;;;;;;2.22;94.42;102927.66;6098881;19;20014;-71
2023/03/03 07:43:33;;;;;;;15.40;7.97;;;;;;;2.26;94.41;102932.09;6093869;19;20488;-71
2023/03/03 07:45:39;;;;;;;13.82;8.02;;;;;;;2.32;94.35;102934.88;6099516;19;20034;-71
2023/03/03 07:47:44;;;;;;;15.95;7.97;;;;;;;2.33;94.40;102932.28;6101893;19;20486;-71
2023/03/03 07:49:50;;;;;;;12.55;7.75;;;;;;;2.34;94.36;102931.47;6094371;19;20995;-71
2023/03/03 07:51:57;;;;;;;19.90;8.95;;;;;;;2.27;94.30;102933.88;6100461;19;20554;-70
2023/03/03 07:54:19;;;;;;;14.13;7.57;;;;;;;2.30;94.56;102931.34;6097319;19;20003;-70
2023/03/03 07:56:31;;;;;;;17.17;6.97;;;;;;;2.37;94.47;102939.34;6099679;19;20014;-70
2023/03/03 07:58:44;;;;;;;13.27;7.93;;;;;;;2.39;94.06;102942.81;6098486;19;20019;-70
2023/03/03 08:01:28;;;;;;;11.60;6.60;;;;;;;2.39;93.93;102948.03;6099299;19;20002;-70
2023/03/03 08:03:37;;;;;;;19.73;7.57;;;;;;;2.45;93.87;102952.53;6096955;19;22396;-71
2023/03/03 08:05:44;;;;;;;12.23;6.93;;;;;;;2.50;94.03;102943.16;6100304;19;20574;-70
2023/03/03 08:07:51;;;;;;;14.05;7.45;;;;;;;2.59;93.59;102945.97;6100382;19;20006;-70
2023/03/03 08:10:00;;;;;;;15.95;7.88;;;;;;;2.56;93.25;102948.50;6099008;19;20070;-70
2023/03/03 08:12:24;;;;;;;13.80;7.05;;;;;;;2.66;93.19;102952.22;6098782;19;20039;-70
2023/03/03 08:14:36;;;;;;;16.42;7.90;;;;;;;2.71;92.92;102953.19;6098893;19;20010;-72
2023/03/03 08:16:41;;;;;;;14.75;6.22;;;;;;;2.70;92.82;102953.16;6101162;19;20302;-71
2023/03/03 08:18:48;;;;;;;15.43;8.07;;;;;;;2.75;92.89;102956.75;6099250;19;20014;-72
2023/03/03 08:20:56;;;;;;;14.55;7.28;;;;;;;2.79;92.52;102959.47;6098626;19;20808;-71
2023/03/03 08:23:01;;;;;;;14.82;8.20;;;;;;;2.76;92.50;102968.88;6076870;19;20014;-71
2023/03/03 08:25:06;;;;;;;15.07;6.68;;;;;;;2.74;92.76;102973.16;6100071;19;20097;-71
2023/03/03 08:27:11;;;;;;;11.95;6.82;;;;;;;2.83;92.23;102978.59;6100838;19;20014;-71
2023/03/03 08:29:16;;;;;;;11.55;6.45;;;;;;;2.83;92.15;102965.63;6096890;19;20777;-72
2023/03/03 08:31:23;;;;;;;13.38;6.40;;;;;;;2.92;92.03;102976.22;6079002;19;20011;-72
2023/03/03 08:33:44;;;;;;;14.27;7.07;;;;;;;2.97;91.98;102973.75;6105814;19;20027;-71
2023/03/03 08:35:48;;;;;;;17.60;8.43;;;;;;;3.02;91.66;102977.34;6104433;19;20014;-75
2023/03/03 08:37:53;;;;;;;15.80;7.70;;;;;;;3.09;91.83;102976.66;6108841;19;20014;-75
2023/03/03 08:39:58;;;;;;;17.25;7.95;;;;;;;3.12;91.63;102976.75;6108765;19;21178;-75
2023/03/03 08:42:03;;;;;;;16.30;6.80;;;;;;;3.15;91.31;102978.53;6084876;19;20657;-75
2023/03/03 08:44:08;;;;;;;13.20;6.70;;;;;;;3.17;91.32;102982.94;6106032;19;20063;-75
2023/03/03 08:46:13;;;;;;;18.05;7.25;;;;;;;3.24;91.26;102982.25;6107598;19;20035;-75
2023/03/03 08:48:21;;;;;;;12.85;7.00;;;;;;;3.32;90.87;102977.25;6104460;19;20007;-75
2023/03/03 08:50:26;;;;;;;16.83;7.22;;;;;;;3.34;90.73;102985.06;6105238;19;20014;-75
2023/03/03 08:52:31;;;;;;;12.52;6.45;;;;;;;3.30;90.54;102979.78;6104568;19;20312;-75
2023/03/03 08:54:36;;;;;;;16.95;8.80;;;;;;;3.35;90.73;102987.69;6108066;19;20018;-74
2023/03/03 08:56:41;;;;;;;16.13;7.50;;;;;;;3.45;90.43;102986.19;6103947;19;20013;-75
2023/03/03 08:58:46;;;;;;;14.98;8.23;;;;;;;3.54;90.28;102993.34;6106244;19;20107;-75
2023/03/03 09:01:07;;;;;;;14.50;7.55;;;;;;;3.71;89.73;102986.78;6106799;19;20055;-74
2023/03/03 09:03:14;;;;;;;17.27;8.02;;;;;;;3.70;89.41;102988.50;6108069;19;20408;-75
2023/03/03 09:05:23;;;;;;;13.50;7.20;;;;;;;3.94;88.97;102993.38;6105175;19;20602;-75
2023/03/03 09:07:27;;;;;;;15.93;7.65;;;;;;;3.91;88.79;102989.81;6108781;19;20025;-74
2023/03/03 09:09:32;;;;;;;15.63;7.28;;;;;;;3.84;88.89;102988.81;6109540;19;20020;-74
2023/03/03 09:11:37;;;;;;;15.07;7.93;;;;;;;3.85;89.05;102987.97;6113345;19;20003;-75
2023/03/03 09:13:43;;;;;;;14.02;7.47;;;;;;;3.86;88.82;102984.53;6113054;19;20018;-75
2023/03/03 09:15:49;;;;;;;23.98;10.18;;;;;;;3.89;88.62;102979.38;6113750;19;20015;-74
2023/03/03 09:17:54;;;;;;;19.02;8.85;;;;;;;3.94;88.08;102984.69;6115083;19;20081;-74
2023/03/03 09:20:04;;;;;;;16.65;7.57;;;;;;;3.90;88.00;102982.88;6117613;19;20018;-75
2023/03/03 09:22:22;;;;;;;18.02;8.23;;;;;;;3.98;88.13;102986.53;6115063;19;20027;-75
2023/03/03 09:24:29;;;;;;;14.82;6.72;;;;;;;3.96;88.00;102991.69;6114692;19;20022;-75
2023/03/03 09:26:47;;;;;;;15.48;7.43;;;;;;;3.92;88.28;102988.97;6109608;19;20023;-75
2023/03/03 09:28:52;;;;;;;13.40;7.78;;;;;;;4.06;88.19;102984.09;6109488;19;20010;-75
2023/03/03 09:31:00;;;;;;;13.50;7.32;;;;;;;4.05;88.13;102990.13;6107015;19;20011;-75
2023/03/03 09:33:24;;;;;;;14.38;7.72;;;;;;;4.05;87.88;102984.91;6107186;19;20029;-75
2023/03/03 09:35:41;;;;;;;16.02;7.05;;;;;;;4.08;87.98;102987.56;6100249;19;20102;-75
2023/03/03 09:37:52;;;;;;;14.40;7.80;;;;;;;4.12;87.97;102992.00;6103835;19;20018;-75
2023/03/03 09:39:58;;;;;;;14.80;7.50;;;;;;;4.15;87.54;102987.72;6104290;19;20010;-75
2023/03/03 09:42:36;;;;;;;12.10;7.43;;;;;;;4.20;87.10;102993.03;6103367;19;20039;-75
2023/03/03 09:45:20;;;;;;;18.60;7.97;;;;;;;4.17;87.22;102992.97;6105452;19;20073;-71
2023/03/03 09:47:32;;;;;;;;;;;;;;;4.18;86.88;102984.31;6101882;19;20018;-71
2023/03/03 09:49:43;;;;;;;16.77;7.07;;;;;;;4.25;87.16;102990.53;6103015;19;19982;-71
2023/03/03 09:52:08;;;;;;;12.95;7.50;;;;;;;4.38;86.28;102989.94;6104483;19;20011;-71